Time;durP1;ratioP1;P1;durP2;ratioP2;P2;SDS_P1;SDS_P2;PMS_P1;PMS_P2;Temp;Humidity;BMP_temperature;BMP_pressure;BME280_temperature;BME280_humidity;BME280_pressure;Samples;Min_cycle;Max_cycle;Signal;HPM_P1;HPM_P2
2022/03/18 00:00:25;;;;;;;13.38;3.40;;;5.10;99.90;;;;;;5067459;28;20110;-83
2022/03/18 00:02:54;;;;;;;10.88;3.90;;;5.10;99.90;;;;;;5049335;28;20135;-83
2022/03/18 00:05:22;;;;;;;20.58;3.35;;;5.10;99.90;;;;;;5068662;28;20154;-83
2022/03/18 00:07:48;;;;;;;11.85;2.90;;;5.00;99.90;;;;;;5053784;28;20045;-82
2022/03/18 00:10:15;;;;;;;10.93;3.40;;;5.60;99.90;;;;;;5067282;28;20079;-82
2022/03/18 00:12:42;;;;;;;9.95;3.05;;;5.00;99.90;;;;;;5051523;28;20396;-82
2022/03/18 00:15:09;;;;;;;10.75;3.22;;;5.00;99.90;;;;;;5059146;28;20186;-82
2022/03/18 00:17:35;;;;;;;17.90;4.30;;;5.00;99.90;;;;;;5054421;28;20080;-83
2022/03/18 00:20:01;;;;;;;14.38;3.22;;;5.80;99.90;;;;;;5064439;28;20082;-82
2022/03/18 00:22:27;;;;;;;10.43;3.45;;;6.30;99.90;;;;;;5064970;28;20036;-82
2022/03/18 00:24:53;;;;;;;16.92;4.30;;;5.00;99.90;;;;;;5031331;28;20519;-83
2022/03/18 00:27:19;;;;;;;11.02;3.70;;;5.00;99.90;;;;;;5031114;28;20037;-83
2022/03/18 00:29:44;;;;;;;12.45;3.50;;;5.60;99.90;;;;;;5032472;28;20411;-82
2022/03/18 00:32:10;;;;;;;21.58;3.90;;;5.80;99.90;;;;;;5063299;28;20110;-82
2022/03/18 00:34:36;;;;;;;15.00;4.10;;;4.90;99.90;;;;;;5048613;28;20044;-82
2022/03/18 00:37:01;;;;;;;15.10;3.78;;;5.80;99.90;;;;;;5046828;28;20067;-82
2022/03/18 00:39:27;;;;;;;20.25;4.53;;;4.90;99.90;;;;;;5048157;28;20053;-83
2022/03/18 00:41:53;;;;;;;13.60;4.53;;;6.50;99.90;;;;;;5014353;28;20040;-83
2022/03/18 00:44:19;;;;;;;12.32;4.28;;;4.90;99.90;;;;;;5030690;28;20423;-82
2022/03/18 00:46:44;;;;;;;20.85;5.43;;;4.90;99.90;;;;;;5065267;28;20044;-83
2022/03/18 00:52:04;;;;;;;18.83;4.80;;;4.90;99.90;;;;;;5065205;28;20051;-83
2022/03/18 00:54:35;;;;;;;20.45;4.78;;;4.90;99.90;;;;;;5064479;28;20084;-82
2022/03/18 00:57:01;;;;;;;15.35;4.18;;;4.80;99.90;;;;;;5063864;28;20044;-83
2022/03/18 00:59:28;;;;;;;18.13;4.55;;;5.90;99.90;;;;;;5064841;28;20094;-83
2022/03/18 01:01:54;;;;;;;14.35;4.15;;;4.80;99.90;;;;;;5064345;28;20045;-83
2022/03/18 01:04:21;;;;;;;19.42;4.97;;;4.80;99.90;;;;;;5064880;28;20186;-83
2022/03/18 01:06:48;;;;;;;12.25;4.57;;;4.80;99.90;;;;;;5065394;28;20054;-83
2022/03/18 01:09:14;;;;;;;17.60;4.55;;;4.70;99.90;;;;;;5052337;28;20083;-83
2022/03/18 01:11:40;;;;;;;11.73;4.43;;;4.70;99.90;;;;;;5034860;28;20052;-83
2022/03/18 01:14:06;;;;;;;20.63;5.40;;;4.70;99.90;;;;;;5068214;28;20503;-83
2022/03/18 01:16:31;;;;;;;17.35;4.53;;;4.70;99.90;;;;;;5069185;28;20407;-82
2022/03/18 01:18:57;;;;;;;7.93;3.72;;;4.70;99.90;;;;;;5033722;28;20496;-83
2022/03/18 01:21:22;;;;;;;10.23;4.55;;;5.80;99.90;;;;;;5035644;28;20048;-82
2022/03/18 01:23:48;;;;;;;23.27;4.43;;;4.70;99.90;;;;;;5066478;28;20052;-83
2022/03/18 01:26:14;;;;;;;16.65;4.90;;;6.00;99.90;;;;;;5070082;28;20045;-83
2022/03/18 01:28:40;;;;;;;13.57;4.45;;;4.70;99.90;;;;;;5067133;28;20404;-82
2022/03/18 01:31:06;;;;;;;8.85;3.78;;;4.70;99.90;;;;;;5069409;28;20036;-82
2022/03/18 01:33:33;;;;;;;12.73;4.10;;;4.70;99.90;;;;;;5067886;28;20568;-84
2022/03/18 01:35:59;;;;;;;11.35;3.88;;;4.80;99.90;;;;;;5033818;28;20067;-83
2022/03/18 01:38:25;;;;;;;13.40;4.47;;;4.70;99.90;;;;;;5068884;28;20036;-83
2022/03/18 01:40:51;;;;;;;12.15;3.25;;;5.80;99.90;;;;;;5067524;28;20388;-83
2022/03/18 01:43:17;;;;;;;13.13;3.75;;;4.70;99.90;;;;;;5069569;28;20048;-83
2022/03/18 01:45:42;;;;;;;8.52;3.05;;;4.80;99.90;;;;;;5049956;28;20132;-81
2022/03/18 01:48:08;;;;;;;7.47;3.50;;;4.80;99.90;;;;;;5034606;28;20488;-82
2022/03/18 01:50:34;;;;;;;10.80;3.80;;;4.80;99.90;;;;;;5050992;28;20087;-83
2022/03/18 01:53:00;;;;;;;14.85;4.28;;;4.80;99.90;;;;;;5049491;28;20041;-82
2022/03/18 01:55:26;;;;;;;12.05;4.00;;;6.10;99.90;;;;;;5069179;28;20474;-82
2022/03/18 01:57:52;;;;;;;19.05;4.30;;;4.80;99.90;;;;;;5049155;28;20381;-82
2022/03/18 02:00:19;;;;;;;16.13;4.55;;;4.70;99.90;;;;;;5068086;28;20387;-83
2022/03/18 02:02:46;;;;;;;14.60;4.25;;;6.20;99.90;;;;;;5067769;28;20072;-83
2022/03/18 02:05:12;;;;;;;13.20;4.35;;;4.70;99.90;;;;;;5068666;28;20094;-83
2022/03/18 02:07:38;;;;;;;16.67;3.92;;;5.00;99.90;;;;;;5067122;28;20045;-83
2022/03/18 02:10:05;;;;;;;13.75;4.13;;;5.90;99.90;;;;;;5065886;28;20051;-83
2022/03/18 02:12:31;;;;;;;11.57;4.15;;;4.70;99.90;;;;;;5067867;28;20484;-83
2022/03/18 02:14:57;;;;;;;8.00;3.50;;;4.70;99.90;;;;;;5066753;28;20051;-83
2022/03/18 02:17:23;;;;;;;15.38;4.30;;;5.90;99.90;;;;;;5067507;28;20078;-83
2022/03/18 02:19:49;;;;;;;17.48;4.15;;;5.80;99.90;;;;;;5065712;28;20041;-83
2022/03/18 02:22:23;;;;;;;9.73;4.28;;;4.70;99.90;;;;;;5068031;28;20057;-83
2022/03/18 02:24:51;;;;;;;9.00;3.88;;;4.70;99.90;;;;;;5050826;28;20074;-83
2022/03/18 02:27:19;;;;;;;13.57;4.18;;;4.70;99.90;;;;;;5049051;28;20052;-83
2022/03/18 02:29:45;;;;;;;20.42;4.63;;;4.70;99.90;;;;;;5051241;28;20037;-83
2022/03/18 02:32:13;;;;;;;12.27;4.22;;;4.70;99.90;;;;;;5065043;28;20087;-82
2022/03/18 02:34:40;;;;;;;22.92;4.70;;;4.70;99.90;;;;;;5050894;28;20043;-82
2022/03/18 02:37:06;;;;;;;8.18;3.55;;;4.70;99.90;;;;;;5049382;28;20528;-82
2022/03/18 02:39:32;;;;;;;12.10;3.58;;;6.00;99.90;;;;;;5068401;28;20134;-82
2022/03/18 02:41:58;;;;;;;8.68;3.42;;;4.80;99.90;;;;;;5071858;28;20055;-83
2022/03/18 02:44:24;;;;;;;9.63;3.22;;;4.80;99.90;;;;;;5077862;28;20040;-82
2022/03/18 02:46:50;;;;;;;9.77;3.75;;;4.80;99.90;;;;;;5051401;28;20036;-82
2022/03/18 02:49:16;;;;;;;13.43;3.92;;;4.80;99.90;;;;;;5065140;28;20400;-83
2022/03/18 02:51:42;;;;;;;13.02;3.70;;;4.80;99.90;;;;;;5067786;28;20178;-83
2022/03/18 02:54:09;;;;;;;11.15;3.55;;;5.20;99.90;;;;;;5066906;28;20044;-83
2022/03/18 02:56:36;;;;;;;8.55;3.60;;;4.80;99.90;;;;;;5049153;28;20051;-83
2022/03/18 02:59:02;;;;;;;8.23;3.70;;;4.80;99.90;;;;;;5068330;28;20040;-84
2022/03/18 03:01:30;;;;;;;5.32;2.97;;;5.70;99.90;;;;;;5066025;28;20041;-83
2022/03/18 03:03:57;;;;;;;8.27;3.83;;;4.70;99.90;;;;;;5066913;28;20074;-83
2022/03/18 03:09:07;;;;;;;11.20;4.22;;;5.30;99.90;;;;;;5052934;28;20040;-82
2022/03/18 03:11:34;;;;;;;10.73;3.83;;;4.70;99.90;;;;;;5066296;28;20488;-83
2022/03/18 03:14:00;;;;;;;12.02;4.53;;;4.60;99.90;;;;;;5032372;28;20045;-83
2022/03/18 03:16:26;;;;;;;13.55;4.85;;;4.60;99.90;;;;;;5033707;28;20032;-83
2022/03/18 03:18:52;;;;;;;17.52;5.15;;;6.10;99.90;;;;;;5064330;28;20048;-83
2022/03/18 03:21:18;;;;;;;8.43;4.35;;;4.60;99.90;;;;;;5067975;28;20040;-83
2022/03/18 03:23:44;;;;;;;8.68;3.70;;;4.60;99.90;;;;;;5064447;28;20060;-82
2022/03/18 03:26:11;;;;;;;9.50;4.63;;;4.60;99.90;;;;;;5066072;28;20044;-83
2022/03/18 03:28:37;;;;;;;12.05;4.00;;;4.50;99.90;;;;;;5065377;28;20456;-83
2022/03/18 03:31:04;;;;;;;8.43;3.42;;;5.30;99.90;;;;;;5064887;28;20054;-83
2022/03/18 03:33:30;;;;;;;13.32;4.43;;;4.60;99.90;;;;;;5068021;28;20051;-83
2022/03/18 03:35:56;;;;;;;18.27;7.10;;;4.50;99.90;;;;;;5065649;28;20053;-83
2022/03/18 03:38:23;;;;;;;14.88;4.25;;;4.60;99.90;;;;;;5049896;28;20048;-83
2022/03/18 03:40:49;;;;;;;10.07;3.67;;;4.60;99.90;;;;;;5047651;28;20052;-83
2022/03/18 03:43:15;;;;;;;11.00;3.83;;;4.90;99.90;;;;;;5049006;28;20040;-82
2022/03/18 03:45:41;;;;;;;16.25;4.22;;;4.60;99.90;;;;;;5049003;28;20442;-83
2022/03/18 03:48:07;;;;;;;11.57;4.30;;;4.70;99.90;;;;;;5064492;28;20044;-82
2022/03/18 03:50:34;;;;;;;10.45;4.10;;;4.70;99.90;;;;;;5066353;28;20067;-83
2022/03/18 03:53:00;;;;;;;8.80;3.92;;;6.10;99.90;;;;;;5065317;28;20045;-83
2022/03/18 03:55:26;;;;;;;9.13;4.70;;;4.70;99.90;;;;;;5066233;28;20246;-83
2022/03/18 03:57:52;;;;;;;14.10;4.50;;;4.80;99.90;;;;;;5065485;28;20040;-82
2022/03/18 04:00:18;;;;;;;9.18;4.25;;;4.80;99.90;;;;;;5067057;28;20490;-83
2022/03/18 04:02:44;;;;;;;10.80;4.43;;;4.90;99.90;;;;;;5064735;28;20122;-83
2022/03/18 04:05:10;;;;;;;14.52;4.05;;;4.90;99.90;;;;;;5065665;28;20047;-83
2022/03/18 04:07:37;;;;;;;11.85;4.80;;;4.90;99.90;;;;;;5067515;28;20047;-83
2022/03/18 04:10:04;;;;;;;16.55;3.92;;;4.90;99.90;;;;;;5063810;28;20391;-82
2022/03/18 04:12:32;;;;;;;10.13;4.53;;;5.00;99.90;;;;;;5067330;28;20041;-83
2022/03/18 04:14:59;;;;;;;10.30;3.95;;;5.00;99.90;;;;;;5063978;28;20485;-83
2022/03/18 04:17:26;;;;;;;16.73;4.18;;;6.40;99.90;;;;;;5048779;28;20450;-83
2022/03/18 04:19:53;;;;;;;10.75;4.55;;;5.10;99.90;;;;;;5064661;28;20090;-83
2022/03/18 04:22:21;;;;;;;13.10;4.22;;;5.20;99.90;;;;;;5063498;28;20521;-83
2022/03/18 04:24:46;;;;;;;15.07;4.15;;;5.30;99.90;;;;;;5065721;28;20131;-83
2022/03/18 04:27:12;;;;;;;10.98;4.28;;;5.30;99.90;;;;;;5064374;28;20103;-83
2022/03/18 04:29:38;;;;;;;11.80;4.15;;;5.40;99.90;;;;;;5065430;28;20117;-83
2022/03/18 04:32:04;;;;;;;8.27;4.05;;;5.40;99.90;;;;;;5063254;28;20040;-82
2022/03/18 04:34:30;;;;;;;10.65;3.95;;;5.50;99.90;;;;;;5067028;28;20342;-82
2022/03/18 04:36:55;;;;;;;14.23;4.97;;;5.50;99.90;;;;;;5065807;28;20068;-83
2022/03/18 04:39:21;;;;;;;13.45;4.57;;;6.60;99.90;;;;;;5063566;28;20044;-82
2022/03/18 04:41:47;;;;;;;9.55;4.28;;;5.60;99.90;;;;;;5064826;28;20091;-83
2022/03/18 04:44:13;;;;;;;13.52;5.40;;;6.80;99.90;;;;;;5064454;28;20041;-82
2022/03/18 04:46:38;;;;;;;13.23;4.47;;;5.60;99.90;;;;;;5065226;28;20571;-82
2022/03/18 04:49:04;;;;;;;9.23;4.47;;;5.60;99.90;;;;;;5046365;28;20201;-83
2022/03/18 04:51:30;;;;;;;11.25;4.63;;;6.80;99.90;;;;;;5064674;28;20115;-83
2022/03/18 04:53:57;;;;;;;11.35;4.43;;;6.90;99.90;;;;;;5064095;28;20388;-82
2022/03/18 04:59:07;;;;;;;17.00;5.00;;;7.00;99.90;;;;;;5065171;28;20500;-83
2022/03/18 05:01:32;;;;;;;11.27;4.93;;;5.60;99.90;;;;;;5062944;28;20047;-82
2022/03/18 05:03:58;;;;;;;14.48;5.20;;;6.70;99.90;;;;;;5067094;28;20048;-83
2022/03/18 05:06:25;;;;;;;12.77;5.28;;;6.90;99.90;;;;;;5065531;28;20254;-82
2022/03/18 05:08:52;;;;;;;11.93;4.97;;;6.90;99.90;;;;;;5067816;28;20040;-81
2022/03/18 05:11:17;;;;;;;13.70;5.40;;;6.80;99.90;;;;;;5080825;28;20465;-82
2022/03/18 05:13:44;;;;;;;9.07;4.88;;;5.40;99.90;;;;;;5065679;28;20043;-83
2022/03/18 05:16:10;;;;;;;9.13;4.65;;;5.30;99.90;;;;;;5065597;28;20086;-83
2022/03/18 05:18:36;;;;;;;11.15;5.03;;;5.30;99.90;;;;;;5062458;28;20049;-83
2022/03/18 05:21:03;;;;;;;12.18;4.97;;;5.20;99.90;;;;;;5066086;28;20404;-83
2022/03/18 05:23:29;;;;;;;9.05;5.05;;;5.20;99.90;;;;;;5062651;28;20411;-82
2022/03/18 05:25:54;;;;;;;16.90;6.88;;;5.20;99.90;;;;;;5065549;28;20127;-82
2022/03/18 05:28:20;;;;;;;10.10;5.88;;;5.10;99.90;;;;;;5047243;28;20384;-82
2022/03/18 05:30:46;;;;;;;16.80;5.75;;;6.00;99.90;;;;;;5029694;28;20043;-82
2022/03/18 05:33:12;;;;;;;11.20;5.65;;;6.40;99.90;;;;;;5065079;28;20492;-82
2022/03/18 05:35:37;;;;;;;15.52;5.53;;;5.80;99.90;;;;;;5062237;28;20040;-83
2022/03/18 05:38:03;;;;;;;14.13;6.60;;;5.20;99.90;;;;;;5048057;28;20109;-81
2022/03/18 05:40:29;;;;;;;14.65;5.97;;;4.90;99.90;;;;;;5029197;28;20504;-83
2022/03/18 05:42:54;;;;;;;16.98;6.93;;;4.90;99.90;;;;;;5047061;28;20484;-83
2022/03/18 05:45:22;;;;;;;12.00;6.45;;;6.10;99.90;;;;;;5063695;28;20049;-83
2022/03/18 05:47:47;;;;;;;10.85;6.60;;;4.80;99.90;;;;;;5063104;28;20048;-83
2022/03/18 05:50:15;;;;;;;10.23;5.95;;;5.80;99.90;;;;;;5065076;28;20463;-81
2022/03/18 05:52:41;;;;;;;18.88;6.43;;;5.60;99.90;;;;;;5066297;28;20055;-82
2022/03/18 05:55:08;;;;;;;18.90;7.35;;;4.80;99.90;;;;;;5067926;28;20048;-83
2022/03/18 05:57:34;;;;;;;14.23;6.20;;;4.80;99.90;;;;;;5066454;28;20045;-82
2022/03/18 06:00:01;;;;;;;13.32;7.25;;;4.70;99.90;;;;;;5050924;28;20114;-82
2022/03/18 06:02:28;;;;;;;16.67;7.25;;;4.70;99.90;;;;;;5033837;28;20495;-82
2022/03/18 06:04:54;;;;;;;17.15;7.40;;;4.70;99.90;;;;;;5067861;28;20084;-83
2022/03/18 06:07:20;;;;;;;15.00;6.93;;;6.00;99.90;;;;;;5069440;28;20079;-80
2022/03/18 06:12:30;;;;;;;18.63;7.53;;;4.80;99.90;;;;;;5068854;28;20538;-81
2022/03/18 06:14:55;;;;;;;12.95;7.03;;;4.80;99.90;;;;;;5066423;28;20137;-82
2022/03/18 06:17:21;;;;;;;19.52;6.88;;;4.80;99.90;;;;;;5068258;28;20051;-82
2022/03/18 06:19:47;;;;;;;15.18;7.43;;;4.80;99.90;;;;;;5066660;28;20048;-83
2022/03/18 06:22:12;;;;;;;12.63;6.45;;;4.80;99.90;;;;;;5067145;28;20810;-83
2022/03/18 06:24:38;;;;;;;16.80;8.02;;;5.60;99.90;;;;;;5067728;28;20048;-83
2022/03/18 06:27:05;;;;;;;19.08;7.75;;;4.80;99.90;;;;;;5065301;28;20083;-83
2022/03/18 06:29:35;;;;;;;11.48;7.72;;;4.80;99.90;;;;;;5069049;28;20423;-84
2022/03/18 06:32:01;;;;;;;12.13;7.32;;;4.80;99.90;;;;;;5049172;28;20484;-82
2022/03/18 06:34:27;;;;;;;14.30;7.38;;;5.50;99.90;;;;;;5068304;28;20127;-84
2022/03/18 06:36:55;;;;;;;16.00;7.68;;;4.80;99.90;;;;;;5068607;28;20087;-82
2022/03/18 06:39:22;;;;;;;19.52;9.00;;;4.90;99.90;;;;;;5065323;28;20124;-84
2022/03/18 06:41:48;;;;;;;18.35;8.50;;;5.00;99.90;;;;;;5069274;28;20047;-82
2022/03/18 06:44:14;;;;;;;15.65;7.60;;;6.40;99.90;;;;;;5066688;28;20036;-83
2022/03/18 06:46:40;;;;;;;15.52;7.18;;;5.50;99.90;;;;;;5067127;28;20393;-80
2022/03/18 06:49:06;;;;;;;21.98;8.35;;;5.20;99.90;;;;;;5049197;28;20589;-82
2022/03/18 06:51:32;;;;;;;19.58;7.70;;;5.20;99.90;;;;;;5066324;28;20090;-85
2022/03/18 06:53:58;;;;;;;18.10;8.55;;;5.30;99.90;;;;;;5033714;28;20484;-84
2022/03/18 06:56:25;;;;;;;16.45;8.93;;;6.60;99.90;;;;;;5066552;28;20132;-82
2022/03/18 06:58:51;;;;;;;17.80;9.23;;;5.50;99.90;;;;;;5050607;28;20473;-83
2022/03/18 07:01:18;;;;;;;15.18;8.15;;;5.60;99.90;;;;;;5047902;28;20055;-82
2022/03/18 07:03:44;;;;;;;17.77;7.47;;;5.80;99.90;;;;;;5066955;28;20115;-83
2022/03/18 07:06:10;;;;;;;18.80;8.43;;;5.90;99.90;;;;;;5048719;28;20167;-82
2022/03/18 07:08:36;;;;;;;19.05;7.45;;;6.00;99.90;;;;;;5049687;28;20098;-82
2022/03/18 07:11:03;;;;;;;15.95;7.72;;;6.10;99.90;;;;;;5066187;28;20124;-83
2022/03/18 07:13:29;;;;;;;14.43;7.75;;;6.60;99.90;;;;;;5064677;28;20040;-83
2022/03/18 07:15:55;;;;;;;15.40;8.30;;;6.20;99.90;;;;;;5068688;28;20152;-82
2022/03/18 07:18:20;;;;;;;18.10;8.13;;;6.40;99.90;;;;;;5047853;28;20076;-82
2022/03/18 07:20:46;;;;;;;20.88;8.25;;;6.40;99.90;;;;;;5067709;28;20052;-83
2022/03/18 07:23:15;;;;;;;14.02;7.13;;;6.30;99.90;;;;;;5064331;28;20056;-82
2022/03/18 07:25:43;;;;;;;19.27;7.80;;;7.80;99.90;;;;;;5065914;28;20055;-82
2022/03/18 07:28:11;;;;;;;18.60;7.10;;;8.20;99.90;;;;;;5067466;28;20132;-82
2022/03/18 07:30:39;;;;;;;16.67;7.75;;;7.60;99.90;;;;;;5063725;28;20551;-82
2022/03/18 07:33:05;;;;;;;27.27;7.50;;;7.80;99.90;;;;;;5066429;28;20406;-83
2022/03/18 07:35:31;;;;;;;20.60;7.32;;;7.80;99.90;;;;;;5063710;28;20032;-83
2022/03/18 07:37:57;;;;;;;13.90;6.88;;;7.50;99.90;;;;;;5066503;28;20392;-83
2022/03/18 07:40:24;;;;;;;22.95;7.18;;;8.50;99.90;;;;;;5065507;28;20484;-83
2022/03/18 07:42:52;;;;;;;20.90;7.10;;;7.60;99.90;;;;;;5065367;28;20412;-83
2022/03/18 07:45:26;;;;;;;11.18;6.57;;;7.70;99.90;;;;;;5065472;28;20040;-83
2022/03/18 07:47:54;;;;;;;23.02;7.15;;;7.80;99.90;;;;;;5065342;28;20087;-83
2022/03/18 07:50:22;;;;;;;21.98;7.45;;;8.90;99.90;;;;;;5067454;28;20115;-83
2022/03/18 07:52:50;;;;;;;22.77;7.40;;;9.20;99.90;;;;;;5047391;28;20040;-83
2022/03/18 07:55:17;;;;;;;19.05;7.15;;;8.10;99.90;;;;;;5065377;28;20441;-83
2022/03/18 07:57:43;;;;;;;18.63;6.80;;;8.20;99.90;;;;;;5066193;28;20076;-83
2022/03/18 08:00:11;;;;;;;18.48;7.20;;;8.30;99.90;;;;;;5065540;28;20079;-81
2022/03/18 08:02:38;;;;;;;16.80;6.72;;;8.30;99.90;;;;;;5066043;28;20052;-82
2022/03/18 08:05:04;;;;;;;19.83;7.18;;;8.40;99.90;;;;;;5063636;28;20395;-82
2022/03/18 08:07:30;;;;;;;14.30;6.53;;;8.50;99.90;;;;;;5065586;28;20487;-83
2022/03/18 08:09:55;;;;;;;14.77;6.85;;;8.60;99.90;;;;;;5047401;28;20047;-81
2022/03/18 08:12:21;;;;;;;17.52;7.05;;;9.80;99.90;;;;;;5032124;28;20514;-78
2022/03/18 08:14:47;;;;;;;14.65;5.88;;;8.80;99.90;;;;;;5064691;28;20045;-78
2022/03/18 08:17:12;;;;;;;17.15;6.20;;;8.90;99.90;;;;;;5065894;28;20048;-79
2022/03/18 08:19:38;;;;;;;15.32;6.40;;;9.00;99.90;;;;;;5067089;28;20070;-81
2022/03/18 08:22:04;;;;;;;17.58;6.70;;;9.30;99.90;;;;;;5064824;28;20040;-80
2022/03/18 08:24:31;;;;;;;16.50;6.28;;;9.30;99.90;;;;;;5065877;28;20403;-80
2022/03/18 08:26:57;;;;;;;18.88;6.35;;;9.40;99.90;;;;;;5047004;28;20045;-80
2022/03/18 08:29:23;;;;;;;20.05;7.35;;;9.50;99.90;;;;;;5065470;28;20048;-80
2022/03/18 08:31:48;;;;;;;18.17;6.55;;;10.50;99.90;;;;;;5065735;28;20485;-80
2022/03/18 08:34:15;;;;;;;22.45;6.40;;;9.70;99.90;;;;;;5066181;28;20040;-80
2022/03/18 08:36:41;;;;;;;13.90;6.82;;;9.80;99.90;;;;;;5066565;28;20614;-79
2022/03/18 08:39:06;;;;;;;12.80;5.97;;;10.00;99.90;;;;;;5063313;28;20048;-79
2022/03/18 08:41:32;;;;;;;15.88;6.45;;;10.50;99.90;;;;;;5065450;28;20098;-80
2022/03/18 08:43:58;;;;;;;13.05;5.88;;;10.20;99.90;;;;;;5064901;28;20040;-80
2022/03/18 08:46:23;;;;;;;16.70;5.40;;;10.80;99.90;;;;;;5065513;28;20047;-80
2022/03/18 08:48:49;;;;;;;20.98;6.70;;;10.40;99.90;;;;;;5064137;28;20480;-80
2022/03/18 08:51:16;;;;;;;19.20;6.13;;;10.60;99.90;;;;;;5048126;28;20077;-79
2022/03/18 08:53:42;;;;;;;14.07;5.63;;;10.70;99.90;;;;;;5066701;28;20098;-79
2022/03/18 08:56:07;;;;;;;14.43;5.40;;;10.80;99.90;;;;;;5064772;28;20485;-79
2022/03/18 08:58:33;;;;;;;17.52;5.85;;;11.00;99.90;;;;;;5066716;28;20037;-78
2022/03/18 09:00:59;;;;;;;17.60;4.80;;;11.10;99.90;;;;;;5064671;28;20044;-78
2022/03/18 09:03:25;;;;;;;14.52;5.22;;;11.30;99.90;;;;;;5066952;28;20692;-78
2022/03/18 09:05:51;;;;;;;12.20;5.38;;;11.40;99.90;;;;;;5063398;28;20407;-78
2022/03/18 09:08:17;;;;;;;14.63;5.18;;;11.70;99.90;;;;;;5064773;28;20076;-78
2022/03/18 09:10:42;;;;;;;12.45;5.05;;;11.90;99.90;;;;;;5064463;28;20555;-79
2022/03/18 09:13:08;;;;;;;13.73;4.75;;;12.20;99.90;;;;;;5029792;28;20045;-79
2022/03/18 09:15:34;;;;;;;20.92;5.20;;;12.40;99.90;;;;;;5065221;28;20048;-79
2022/03/18 09:18:00;;;;;;;17.88;5.68;;;12.50;99.90;;;;;;5045968;28;20044;-79
2022/03/18 09:20:26;;;;;;;19.58;4.75;;;12.50;99.90;;;;;;5064619;28;20087;-79
2022/03/18 09:22:52;;;;;;;11.75;4.55;;;12.70;99.90;;;;;;5063042;28;20511;-79
2022/03/18 09:25:18;;;;;;;12.27;4.35;;;12.90;99.90;;;;;;5064582;28;20132;-79
2022/03/18 09:27:44;;;;;;;13.15;4.85;;;13.10;99.90;;;;;;5068051;28;20051;-78
2022/03/18 09:30:11;;;;;;;17.20;4.35;;;13.20;99.90;;;;;;5068565;28;20102;-78
2022/03/18 09:32:40;;;;;;;12.77;4.68;;;13.10;99.90;;;;;;5070685;28;20043;-79
2022/03/18 09:35:07;;;;;;;13.65;4.57;;;13.20;99.90;;;;;;5066260;28;20040;-79
2022/03/18 09:37:33;;;;;;;12.30;4.00;;;13.20;99.90;;;;;;5068920;28;20052;-78
2022/03/18 09:40:01;;;;;;;12.98;4.28;;;13.20;99.90;;;;;;5066918;28;20403;-78
2022/03/18 09:42:27;;;;;;;15.30;4.72;;;13.30;99.90;;;;;;5069225;28;20056;-78
2022/03/18 09:44:53;;;;;;;11.02;4.00;;;13.50;99.90;;;;;;5068403;28;20109;-79
2022/03/18 09:47:21;;;;;;;14.80;4.53;;;13.50;99.90;;;;;;5033441;28;20123;-79
2022/03/18 09:49:47;;;;;;;14.65;4.70;;;13.80;99.90;;;;;;5069087;28;20643;-79
2022/03/18 09:52:15;;;;;;;13.30;4.55;;;14.00;99.90;;;;;;5049955;28;20400;-79
2022/03/18 09:54:41;;;;;;;11.23;4.22;;;14.00;99.90;;;;;;5070228;28;20044;-79
2022/03/18 09:57:07;;;;;;;11.23;3.90;;;14.30;99.90;;;;;;5066744;28;20048;-81
2022/03/18 09:59:33;;;;;;;8.30;3.40;;;14.30;99.90;;;;;;5034315;28;20036;-80
2022/03/18 10:02:22;;;;;;;15.57;4.55;;;14.40;99.90;;;;;;5067883;28;20102;-80
2022/03/18 10:05:08;;;;;;;12.35;3.65;;;14.40;99.90;;;;;;5066202;28;20055;-79
2022/03/18 10:07:34;;;;;;;14.95;3.72;;;14.40;99.90;;;;;;5069639;28;20052;-80
2022/03/18 10:10:11;;;;;;;18.35;4.25;;;14.50;99.90;;;;;;5050193;28;20507;-80
2022/03/18 10:12:38;;;;;;;12.50;4.55;;;14.60;99.90;;;;;;5067067;28;20067;-81
2022/03/18 10:15:19;;;;;;;10.45;4.00;;;15.60;99.90;;;;;;5068214;28;20050;-81
2022/03/18 10:17:54;;;;;;;16.17;4.65;;;14.80;99.90;;;;;;5067537;28;20146;-79
2022/03/18 10:20:23;;;;;;;10.27;3.83;;;14.90;99.90;;;;;;5051410;28;20040;-80
2022/03/18 10:22:50;;;;;;;9.52;3.45;;;14.90;99.90;;;;;;5049764;28;20056;-79
2022/03/18 10:25:53;;;;;;;7.45;3.35;;;14.90;99.90;;;;;;5051193;28;20690;-80
2022/03/18 10:28:43;;;;;;;15.23;3.47;;;15.00;99.90;;;;;;5068387;28;20044;-80
2022/03/18 10:31:18;;;;;;;19.10;4.78;;;14.90;99.90;;;;;;5049661;28;20109;-80
2022/03/18 10:39:24;;;;;;;13.00;3.58;;;14.90;99.90;;;;;;5050107;28;20542;-80
2022/03/18 10:41:50;;;;;;;16.15;4.50;;;14.90;99.90;;;;;;5068445;28;20044;-80
2022/03/18 10:44:18;;;;;;;14.20;3.97;;;14.90;99.90;;;;;;5066294;28;20045;-80
2022/03/18 10:46:44;;;;;;;14.00;4.05;;;14.90;99.90;;;;;;5067652;28;20119;-80
2022/03/18 10:49:10;;;;;;;14.13;4.07;;;15.00;99.90;;;;;;5050492;28;20469;-80
2022/03/18 10:51:37;;;;;;;15.02;3.90;;;15.10;99.90;;;;;;5048401;28;20048;-80
2022/03/18 10:54:04;;;;;;;11.45;3.53;;;15.20;99.90;;;;;;5067336;28;20488;-80
2022/03/18 10:56:54;;;;;;;18.63;4.55;;;15.30;99.90;;;;;;5065614;28;20075;-79
2022/03/18 10:59:19;;;;;;;11.95;4.18;;;15.30;99.90;;;;;;5049566;28;20406;-82
2022/03/18 11:01:47;;;;;;;17.60;4.22;;;15.30;99.90;;;;;;5049931;28;20349;-81
2022/03/18 11:04:16;;;;;;;9.77;3.40;;;15.40;99.90;;;;;;5065757;28;20074;-80
2022/03/18 11:07:29;;;;;;;9.88;3.92;;;15.40;99.90;;;;;;5067120;28;20051;-79
2022/03/18 11:11:07;;;;;;;8.27;3.40;;;15.50;99.90;;;;;;5065631;28;20045;-80
2022/03/18 11:12:26;;;;;;;11.77;3.13;;;15.50;99.90;;;;;;5066172;28;20432;-80
2022/03/18 11:14:54;;;;;;;12.48;3.65;;;15.70;99.90;;;;;;5050375;28;20124;-79
2022/03/18 11:17:21;;;;;;;12.90;3.28;;;15.70;99.90;;;;;;5066338;28;20052;-81
2022/03/18 11:19:47;;;;;;;13.85;3.78;;;15.80;99.90;;;;;;5068386;28;20049;-80
2022/03/18 11:22:16;;;;;;;9.95;3.63;;;15.80;99.90;;;;;;5065032;28;20044;-80
2022/03/18 11:24:45;;;;;;;12.02;2.95;;;15.80;99.90;;;;;;5049481;28;20127;-79
2022/03/18 11:27:12;;;;;;;14.85;3.72;;;15.90;99.90;;;;;;5065971;28;20044;-80
2022/03/18 11:29:38;;;;;;;7.38;2.55;;;16.00;99.90;;;;;;5065308;28;20040;-80
2022/03/18 11:32:11;;;;;;;8.88;2.70;;;16.10;99.90;;;;;;5066576;28;20044;-81
2022/03/18 11:34:56;;;;;;;12.40;3.15;;;16.20;99.90;;;;;;5066033;28;20041;-83
2022/03/18 11:37:23;;;;;;;11.48;3.20;;;16.20;99.30;;;;;;5066483;28;20052;-83
2022/03/18 11:39:48;;;;;;;14.40;2.97;;;16.30;99.90;;;;;;5066742;28;20048;-83
2022/03/18 11:42:19;;;;;;;12.10;3.22;;;16.40;99.80;;;;;;5066852;28;20047;-83
2022/03/18 11:44:56;;;;;;;11.13;2.33;;;16.40;96.20;;;;;;5067700;28;20089;-83
2022/03/18 11:47:33;;;;;;;11.80;2.55;;;16.40;97.70;;;;;;5047639;28;20059;-83
2022/03/18 11:50:02;;;;;;;13.52;3.50;;;16.30;99.10;;;;;;5065687;28;20044;-82
2022/03/18 11:52:28;;;;;;;11.70;3.25;;;16.40;99.40;;;;;;5064627;28;20037;-82
2022/03/18 11:54:56;;;;;;;7.47;2.80;;;16.50;99.50;;;;;;5066665;28;20131;-83
2022/03/18 11:57:36;;;;;;;15.20;2.80;;;16.60;98.70;;;;;;5065943;28;20091;-83
2022/03/18 12:00:08;;;;;;;9.70;3.03;;;16.50;96.60;;;;;;5063849;28;20159;-81
2022/03/18 12:02:35;;;;;;;12.40;3.17;;;16.20;98.00;;;;;;5067860;28;20047;-82
2022/03/18 12:05:02;;;;;;;14.80;3.85;;;15.80;99.10;;;;;;5065172;28;20087;-82
2022/03/18 12:07:32;;;;;;;14.60;2.90;;;15.60;99.90;;;;;;5065104;28;20510;-83
2022/03/18 12:10:06;;;;;;;12.48;3.67;;;15.50;99.90;;;;;;5064836;28;20040;-82
2022/03/18 12:12:34;;;;;;;13.85;3.85;;;15.70;99.90;;;;;;5063671;28;20051;-83
2022/03/18 12:15:09;;;;;;;10.75;2.70;;;15.80;99.70;;;;;;5065675;28;20294;-82
2022/03/18 12:17:46;;;;;;;11.43;3.38;;;15.90;99.10;;;;;;5063798;28;20051;-82
2022/03/18 12:20:24;;;;;;;20.60;2.88;;;16.00;98.50;;;;;;5049340;28;20356;-82
2022/03/18 12:22:52;;;;;;;14.35;3.15;;;16.10;97.70;;;;;;5066237;28;20056;-82
2022/03/18 12:25:18;;;;;;;16.98;3.28;;;16.00;97.90;;;;;;5063406;28;20036;-83
2022/03/18 12:27:44;;;;;;;15.77;3.45;;;15.90;98.20;;;;;;5067511;28;20033;-83
2022/03/18 12:30:13;;;;;;;12.38;2.80;;;15.90;98.20;;;;;;5065315;28;20438;-83
2022/03/18 12:32:52;;;;;;;9.60;2.90;;;15.80;98.20;;;;;;5068217;28;20046;-83
2022/03/18 12:35:23;;;;;;;15.20;3.00;;;15.80;98.10;;;;;;5065769;28;20404;-83
2022/03/18 12:38:01;;;;;;;12.80;2.85;;;15.90;97.90;;;;;;5065694;28;20044;-82
2022/03/18 12:40:27;;;;;;;17.25;3.55;;;16.00;98.10;;;;;;5066974;28;20388;-82
2022/03/18 12:42:57;;;;;;;10.73;2.25;;;16.10;97.60;;;;;;5063356;28;20216;-82
2022/03/18 12:45:30;;;;;;;10.30;2.40;;;16.30;97.40;;;;;;5065299;28;20090;-82
2022/03/18 12:48:05;;;;;;;11.82;2.75;;;16.40;96.00;;;;;;5046882;28;20051;-82
2022/03/18 12:50:40;;;;;;;15.45;3.70;;;16.40;96.10;;;;;;5047418;28;20081;-83
2022/03/18 12:53:16;;;;;;;10.98;2.35;;;16.50;96.10;;;;;;5065518;28;20067;-82
2022/03/18 12:55:44;;;;;;;10.98;2.60;;;16.50;93.60;;;;;;5063456;28;20373;-82
2022/03/18 12:58:10;;;;;;;10.25;2.67;;;16.60;95.30;;;;;;5066998;28;20111;-83
2022/03/18 13:00:44;;;;;;;11.45;2.65;;;16.60;95.10;;;;;;5063526;28;20116;-82
2022/03/18 13:03:19;;;;;;;19.05;2.92;;;16.70;92.80;;;;;;5067955;28;20041;-82